Time;durP1;ratioP1;P1;durP2;ratioP2;P2;SDS_P1;SDS_P2;PMS_P1;PMS_P2;Temp;Humidity;BMP_temperature;BMP_pressure;BME280_temperature;BME280_humidity;BME280_pressure;Samples;Min_cycle;Max_cycle;Signal;HPM_P1;HPM_P2
2023/06/09 00:00:38;;;;;;;23.90;20.17;;;486.80;2380.80;;;;;;5030904;28;20022;-58
2023/06/09 00:03:05;;;;;;;23.60;20.83;;;486.80;2380.80;;;;;;5030929;28;20110;-54
2023/06/09 00:05:32;;;;;;;24.05;21.08;;;486.80;2380.80;;;;;;5030261;28;20029;-60
2023/06/09 00:07:58;;;;;;;27.25;21.92;;;486.80;2380.80;;;;;;5030780;28;20412;-54
2023/06/09 00:10:25;;;;;;;26.88;21.45;;;486.70;2380.80;;;;;;5030640;28;20022;-55
2023/06/09 00:12:52;;;;;;;23.95;21.13;;;486.70;2380.80;;;;;;5030666;28;20044;-55
2023/06/09 00:15:18;;;;;;;26.23;19.73;;;486.70;2380.80;;;;;;5030367;28;20056;-58
2023/06/09 00:17:45;;;;;;;27.17;20.63;;;486.70;2380.80;;;;;;5029341;28;20604;-53
2023/06/09 00:20:12;;;;;;;27.48;22.05;;;486.60;2380.80;;;;;;5030304;28;20067;-54
2023/06/09 00:22:42;;;;;;;24.55;20.02;;;486.50;2380.80;;;;;;5030536;28;20372;-54
2023/06/09 00:25:16;;;;;;;23.13;19.52;;;461.70;2380.80;;;;;;5029806;28;20033;-54
2023/06/09 00:27:45;;;;;;;24.48;21.58;;;461.70;2380.80;;;;;;5030452;28;20021;-55
2023/06/09 00:30:14;;;;;;;25.35;21.17;;;461.50;2380.80;;;;;;5029935;28;20025;-63
2023/06/09 00:32:41;;;;;;;24.00;20.38;;;461.60;2380.80;;;;;;5030076;28;20492;-53
2023/06/09 00:35:07;;;;;;;24.45;19.55;;;461.50;2380.80;;;;;;5029989;28;20139;-53
2023/06/09 00:37:34;;;;;;;25.13;20.92;;;461.50;2380.80;;;;;;5030040;28;20460;-52
2023/06/09 00:40:00;;;;;;;22.27;19.88;;;;;;;;;;5029907;28;20526;-53
2023/06/09 00:42:27;;;;;;;28.52;21.30;;;;;;;;;;5029733;28;20080;-53
2023/06/09 00:44:53;;;;;;;24.13;21.10;;;;;;;;;;5029749;28;20471;-54
2023/06/09 00:47:19;;;;;;;24.30;20.05;;;;;;;;;;5029667;28;20384;-53
2023/06/09 00:49:45;;;;;;;23.65;20.05;;;461.70;2380.80;;;;;;5029569;28;20017;-54
2023/06/09 00:52:11;;;;;;;28.80;21.23;;;461.50;2380.80;;;;;;5030415;28;20021;-54
2023/06/09 00:54:38;;;;;;;25.95;20.42;;;461.60;2380.80;;;;;;5029143;28;20032;-60
2023/06/09 00:57:07;;;;;;;25.23;20.90;;;461.60;2380.80;;;;;;5029895;28;20033;-54
2023/06/09 00:59:36;;;;;;;33.03;24.40;;;461.50;2380.80;;;;;;5029456;28;20053;-54
2023/06/09 01:02:05;;;;;;;26.95;20.92;;;461.60;2380.80;;;;;;5029933;28;20021;-61
2023/06/09 01:04:34;;;;;;;27.13;22.35;;;461.60;2380.80;;;;;;5029612;28;20018;-55
2023/06/09 01:07:11;;;;;;;23.40;20.73;;;461.60;2380.80;;;;;;5029652;28;20025;-53
2023/06/09 01:10:03;;;;;;;29.55;21.80;;;461.60;2380.80;;;;;;5029547;28;20025;-53
2023/06/09 01:12:44;;;;;;;24.77;21.07;;;461.60;2380.80;;;;;;5017085;28;20033;-53
2023/06/09 01:15:20;;;;;;;25.48;21.00;;;461.60;2380.80;;;;;;5029490;28;20100;-60
2023/06/09 01:17:56;;;;;;;24.98;20.15;;;461.40;2380.80;;;;;;5016626;28;20155;-54
2023/06/09 01:20:38;;;;;;;24.58;21.58;;;461.40;2380.80;;;;;;5029005;28;20024;-54
2023/06/09 01:23:36;;;;;;;27.63;21.55;;;461.40;2380.80;;;;;;5029270;28;20463;-54
2023/06/09 01:26:02;;;;;;;24.38;21.63;;;461.40;2380.80;;;;;;5026939;28;20117;-55
2023/06/09 01:28:29;;;;;;;25.50;21.27;;;461.40;2380.80;;;;;;5026720;28;20595;-53
2023/06/09 01:30:56;;;;;;;28.90;23.98;;;461.40;2380.80;;;;;;5026683;28;20037;-54
2023/06/09 01:33:24;;;;;;;28.77;23.38;;;461.40;2380.80;;;;;;5026739;28;20083;-63
2023/06/09 01:35:51;;;;;;;28.15;23.20;;;461.40;2380.80;;;;;;5026813;28;20515;-53
2023/06/09 01:38:19;;;;;;;27.65;22.58;;;461.40;2380.80;;;;;;5026312;28;20048;-53
2023/06/09 01:40:45;;;;;;;25.27;22.55;;;461.30;2380.80;;;;;;5026787;28;20022;-53
2023/06/09 01:43:11;;;;;;;25.50;22.55;;;461.30;2380.80;;;;;;5026777;28;20041;-56
2023/06/09 01:45:37;;;;;;;27.63;22.77;;;461.30;2380.80;;;;;;5026516;28;20032;-59
2023/06/09 01:48:37;;;;;;;27.90;23.00;;;461.30;2380.80;;;;;;5026411;28;20518;-62
2023/06/09 01:51:15;;;;;;;24.83;21.33;;;461.30;2380.80;;;;;;5012752;28;20033;-62
2023/06/09 01:53:48;;;;;;;24.98;21.63;;;461.30;2380.80;;;;;;5026906;28;20034;-62
2023/06/09 01:56:46;;;;;;;28.73;23.63;;;461.20;2380.80;;;;;;5026337;28;20126;-54
2023/06/09 01:59:17;;;;;;;27.25;20.55;;;461.10;2380.80;;;;;;5026715;28;20086;-53
2023/06/09 02:01:45;;;;;;;24.02;21.23;;;;;;;;;;5026712;28;20112;-55
2023/06/09 02:04:12;;;;;;;24.75;21.20;;;;;;;;;;5025324;28;20030;-54
2023/06/09 02:06:38;;;;;;;27.00;21.38;;;461.30;2380.80;;;;;;5028582;28;20014;-53
2023/06/09 02:09:04;;;;;;;25.30;21.73;;;461.10;2380.80;;;;;;5028843;28;20045;-57
2023/06/09 02:11:30;;;;;;;24.60;21.88;;;;;;;;;;5028927;28;20104;-54
2023/06/09 02:13:56;;;;;;;23.33;20.73;;;461.10;2380.80;;;;;;5028950;28;20120;-54
2023/06/09 02:16:22;;;;;;;26.25;21.85;;;461.00;2380.80;;;;;;5028882;28;20587;-54
2023/06/09 02:18:49;;;;;;;24.60;21.48;;;460.90;2380.80;;;;;;5028372;28;20030;-54
2023/06/09 02:21:15;;;;;;;26.13;20.77;;;460.90;2380.80;;;;;;5028631;28;20057;-55
2023/06/09 02:23:41;;;;;;;23.42;19.45;;;460.90;2380.80;;;;;;5028633;28;20033;-56
2023/06/09 02:26:07;;;;;;;27.08;21.05;;;460.80;2380.80;;;;;;5028773;28;20029;-53
2023/06/09 02:28:33;;;;;;;24.08;21.42;;;460.80;2380.80;;;;;;5028626;28;20025;-53
2023/06/09 02:30:59;;;;;;;22.77;19.60;;;436.10;2355.20;;;;;;5032749;28;20117;-54
2023/06/09 02:33:25;;;;;;;25.10;22.38;;;436.10;2355.20;;;;;;5032121;28;20539;-54
2023/06/09 02:35:51;;;;;;;25.25;22.00;;;436.10;2355.20;;;;;;5032562;28;20025;-54
2023/06/09 02:38:17;;;;;;;23.65;19.15;;;;;;;;;;5031956;28;20096;-54
2023/06/09 02:40:46;;;;;;;23.50;19.98;;;;;;;;;;5032865;28;20048;-52
2023/06/09 02:43:12;;;;;;;27.02;20.48;;;;;;;;;;5032077;28;20511;-53
2023/06/09 02:45:38;;;;;;;27.40;21.77;;;;;;;;;;5032194;28;20029;-53
2023/06/09 02:48:05;;;;;;;29.67;23.45;;;;;;;;;;5031909;28;20104;-53
2023/06/09 02:50:31;;;;;;;25.92;21.92;;;;;;;;;;5032128;28;20049;-53
2023/06/09 02:52:57;;;;;;;27.63;22.02;;;;;;;;;;5032385;28;20025;-53
2023/06/09 02:55:23;;;;;;;25.13;20.63;;;;;;;;;;5032229;28;20036;-55
2023/06/09 02:57:49;;;;;;;29.40;21.25;;;;;;;;;;5032347;28;20017;-53
2023/06/09 03:00:16;;;;;;;21.65;19.20;;;;;;;;;;5031967;28;20044;-53
2023/06/09 03:02:42;;;;;;;25.45;20.60;;;;;;;;;;5032050;28;20037;-53
2023/06/09 03:05:09;;;;;;;28.48;20.65;;;;;;;;;;5031473;28;20353;-53
2023/06/09 03:07:36;;;;;;;23.95;20.48;;;;;;;;;;5031260;28;20021;-53
2023/06/09 03:10:02;;;;;;;23.00;18.27;;;;;;;;;;5031797;28;20388;-54
2023/06/09 03:12:28;;;;;;;24.65;19.88;;;;;;;;;;5031665;28;20032;-53
2023/06/09 03:14:54;;;;;;;26.17;19.80;;;;;;;;;;5031872;28;20033;-53
2023/06/09 03:17:21;;;;;;;27.88;19.88;;;;;;;;;;5031464;28;20024;-54
2023/06/09 03:19:47;;;;;;;23.15;19.88;;;;;;;;;;5031564;28;20103;-54
2023/06/09 03:22:13;;;;;;;21.63;19.30;;;;;;;;;;5031452;28;20022;-58
2023/06/09 03:24:39;;;;;;;25.08;18.63;;;;;;;;;;5031398;28;20113;-55
2023/06/09 03:27:05;;;;;;;23.17;19.83;;;;;;;;;;5031266;28;20021;-53
2023/06/09 03:29:32;;;;;;;23.20;20.40;;;;;;;;;;5031454;28;20033;-54
2023/06/09 03:31:58;;;;;;;23.17;20.13;;;;;;;;;;5030677;28;20039;-54
2023/06/09 03:34:25;;;;;;;25.10;19.15;;;;;;;;;;5031161;28;20037;-52
2023/06/09 03:36:51;;;;;;;22.42;19.80;;;;;;;;;;5031118;28;20104;-51
2023/06/09 03:39:17;;;;;;;29.45;18.83;;;;;;;;;;5031297;28;20038;-52
2023/06/09 03:41:43;;;;;;;24.45;18.38;;;;;;;;;;5030500;28;20058;-51
2023/06/09 03:44:09;;;;;;;25.63;18.30;;;;;;;;;;5031296;28;20057;-52
2023/06/09 03:46:35;;;;;;;21.63;18.52;;;;;;;;;;5017690;28;20040;-55
2023/06/09 03:49:01;;;;;;;22.40;20.00;;;;;;;;;;5031247;28;20100;-52
2023/06/09 03:51:27;;;;;;;21.88;18.42;;;;;;;;;;5030736;28;20022;-51
2023/06/09 03:53:53;;;;;;;23.38;18.73;;;;;;;;;;5030878;28;20065;-55
2023/06/09 03:56:19;;;;;;;22.05;18.38;;;;;;;;;;5030529;28;20372;-53
2023/06/09 03:58:46;;;;;;;21.88;16.83;;;;;;;;;;5030788;28;20456;-57
2023/06/09 04:01:12;;;;;;;21.40;18.25;;;;;;;;;;5030686;28;20026;-53
2023/06/09 04:03:39;;;;;;;20.40;17.30;;;;;;;;;;5030583;28;20061;-54
2023/06/09 04:06:06;;;;;;;19.67;17.58;;;;;;;;;;5030440;28;20068;-54
2023/06/09 04:08:32;;;;;;;22.42;18.02;;;;;;;;;;5030555;28;20034;-55
2023/06/09 04:14:28;;;;;;;20.88;17.63;;;;;;;;;;5087548;22;20131;-53
2023/06/09 04:16:54;;;;;;;26.25;18.23;;;;;;;;;;5050336;28;20048;-60
2023/06/09 04:19:20;;;;;;;20.17;17.60;;;;;;;;;;5050328;28;20526;-60
2023/06/09 04:21:46;;;;;;;21.80;17.02;;;;;;;;;;5050641;28;20025;-54
2023/06/09 04:24:14;;;;;;;23.25;16.98;;;;;;;;;;5050755;28;20120;-55
2023/06/09 04:26:41;;;;;;;25.02;17.50;;;;;;;;;;5050685;28;20032;-59
2023/06/09 04:29:10;;;;;;;18.40;16.42;;;;;;;;;;5050488;28;20032;-60
2023/06/09 04:31:42;;;;;;;17.90;15.75;;;;;;;;;;5032468;28;20060;-54
2023/06/09 04:34:29;;;;;;;19.17;17.15;;;;;;;;;;5358985;22;20570;-55
2023/06/09 04:36:59;;;;;;;20.38;16.63;;;;;;;;;;5069680;28;20029;-56
2023/06/09 04:39:29;;;;;;;21.00;18.05;;;;;;;;;;5069788;28;20029;-59
2023/06/09 04:41:55;;;;;;;17.55;15.05;;;;;;;;;;5069933;28;20091;-59
2023/06/09 04:44:22;;;;;;;20.05;16.15;;;;;;;;;;5070059;28;20045;-60
2023/06/09 04:46:49;;;;;;;25.02;17.02;;;;;;;;;;5066149;28;20028;-60
2023/06/09 04:49:15;;;;;;;17.85;16.05;;;;;;;;;;5069398;28;20103;-54
2023/06/09 04:51:49;;;;;;;17.52;15.73;;;;;;;;;;5069734;28;20025;-53
2023/06/09 04:54:16;;;;;;;17.75;15.95;;;;;;;;;;5051075;28;20036;-57
2023/06/09 04:56:52;;;;;;;19.13;16.58;;;;;;;;;;5064758;28;20109;-53
2023/06/09 04:59:18;;;;;;;18.42;15.68;;;;;;;;;;5069447;28;20036;-54
2023/06/09 05:01:46;;;;;;;20.38;15.27;;;;;;;;;;5069294;28;20509;-54
2023/06/09 05:04:13;;;;;;;20.17;16.20;;;;;;;;;;5054777;28;20386;-61
2023/06/09 05:06:40;;;;;;;25.02;16.95;;;;;;;;;;5066663;28;20031;-53
2023/06/09 05:09:07;;;;;;;19.58;17.10;;;;;;;;;;5068880;28;20044;-63
2023/06/09 05:11:33;;;;;;;25.60;18.27;;;;;;;;;;5053362;28;20021;-53
2023/06/09 05:13:59;;;;;;;18.70;14.52;;;;;;;;;;5054772;28;20098;-55
2023/06/09 05:16:27;;;;;;;17.52;14.70;;;;;;;;;;5069049;28;20470;-54
2023/06/09 05:18:53;;;;;;;19.52;16.33;;;;;;;;;;5068873;28;20074;-56
2023/06/09 05:21:21;;;;;;;19.65;16.15;;;;;;;;;;5069303;28;20051;-54
2023/06/09 05:23:47;;;;;;;19.15;16.05;;;;;;;;;;5068658;28;20048;-53
2023/06/09 05:26:13;;;;;;;17.92;13.98;;;;;;;;;;5068976;28;20090;-53
2023/06/09 05:28:39;;;;;;;18.88;15.80;;;;;;;;;;5069014;28;20055;-53
2023/06/09 05:31:05;;;;;;;15.68;14.05;;;;;;;;;;5068590;28;20024;-54
2023/06/09 05:33:32;;;;;;;20.10;13.73;;;564.10;2432.00;;;;;;5068631;28;20020;-53
2023/06/09 05:35:58;;;;;;;14.93;13.43;;;588.90;2432.00;;;;;;5068307;28;20442;-55
2023/06/09 05:38:25;;;;;;;15.25;13.57;;;589.20;2432.00;;;;;;5068691;28;20017;-54
2023/06/09 05:40:52;;;;;;;18.15;12.23;;;614.60;2432.00;;;;;;5068920;28;20028;-54
2023/06/09 05:43:18;;;;;;;14.80;13.23;;;640.00;2432.00;;;;;;5068707;28;20021;-54
2023/06/09 05:45:43;;;;;;;25.48;13.80;;;640.90;2432.00;;;;;;5068595;28;20024;-54
2023/06/09 05:48:09;;;;;;;14.45;12.45;;;;;;;;;;5068671;28;20486;-54
2023/06/09 05:50:37;;;;;;;13.95;12.40;;;743.20;2201.60;;;;;;5068182;28;20067;-54
2023/06/09 05:53:03;;;;;;;13.50;11.85;;;844.90;1945.60;;;;;;5068712;28;20551;-55
2023/06/09 05:55:29;;;;;;;14.55;13.18;;;896.70;1664.00;;;;;;5069092;28;20480;-59
2023/06/09 05:57:54;;;;;;;20.50;14.18;;;948.10;1536.00;;;;;;5050467;28;20028;-55
2023/06/09 06:00:21;;;;;;;16.02;14.45;;;973.70;1459.20;;;;;;5069039;28;20028;-55
2023/06/09 06:02:47;;;;;;;15.40;13.73;;;;;;;;;;5069122;28;20025;-55
2023/06/09 06:05:13;;;;;;;15.23;13.88;;;1024.30;1408.00;;;;;;5071558;28;20110;-54
2023/06/09 06:07:39;;;;;;;16.92;15.43;;;1050.30;1331.20;;;;;;5073079;28;20058;-55
2023/06/09 06:10:06;;;;;;;18.90;17.00;;;1076.10;1280.00;;;;;;5073016;28;20029;-56
2023/06/09 06:12:35;;;;;;;18.55;16.85;;;1101.10;1280.00;;;;;;5071867;28;20074;-55
2023/06/09 06:15:01;;;;;;;19.95;18.05;;;1101.10;1254.40;;;;;;5073019;28;20033;-60
2023/06/09 06:17:27;;;;;;;20.35;18.63;;;1127.10;1203.20;;;;;;5073032;28;20107;-60
2023/06/09 06:19:52;;;;;;;21.17;19.33;;;1127.30;1152.00;;;;;;5072472;28;20107;-55
2023/06/09 06:22:18;;;;;;;21.85;19.85;;;1152.00;1152.00;;;;;;5072447;28;20233;-54
2023/06/09 06:24:44;;;;;;;20.48;18.63;;;1152.00;1152.00;;;;;;5072413;28;20028;-63
2023/06/09 06:27:11;;;;;;;21.98;20.17;;;1126.80;1152.00;;;;;;5072821;28;20484;-58
2023/06/09 06:29:38;;;;;;;22.38;20.55;;;1152.70;1100.80;;;;;;5072349;28;20020;-55
2023/06/09 06:32:06;;;;;;;21.38;19.48;;;1101.70;1177.60;;;;;;5072572;28;20048;-56
2023/06/09 06:34:32;;;;;;;20.50;18.70;;;1101.60;1152.00;;;;;;5071960;28;20052;-60
2023/06/09 06:36:57;;;;;;;23.50;21.35;;;1101.20;1177.60;;;;;;5072198;28;20021;-58
2023/06/09 06:39:23;;;;;;;20.60;18.77;;;1126.80;1152.00;;;;;;5072549;28;20154;-61
2023/06/09 06:41:49;;;;;;;21.08;19.17;;;1126.40;1177.60;;;;;;5072614;28;20119;-57
2023/06/09 06:44:15;;;;;;;21.45;18.88;;;1152.40;1100.80;;;;;;5072127;28;20016;-56
2023/06/09 06:46:40;;;;;;;20.70;19.02;;;1152.70;1100.80;;;;;;5072411;28;20031;-55
2023/06/09 06:49:06;;;;;;;20.75;19.05;;;1178.00;1075.20;;;;;;5071738;28;20058;-62
2023/06/09 06:51:32;;;;;;;21.77;19.83;;;1152.50;1100.80;;;;;;5071952;28;21172;-58
2023/06/09 06:53:57;;;;;;;20.48;18.77;;;1177.80;1075.20;;;;;;5071374;28;20113;-59
2023/06/09 06:56:25;;;;;;;19.60;17.90;;;1152.50;1100.80;;;;;;5072491;28;20016;-58
2023/06/09 06:58:52;;;;;;;19.90;18.05;;;1178.20;1049.60;;;;;;5055355;28;20112;-59
2023/06/09 07:01:21;;;;;;;22.80;20.80;;;1203.20;1049.60;;;;;;5062579;28;20048;-59
2023/06/09 07:03:49;;;;;;;21.17;19.48;;;1228.80;1049.60;;;;;;5071430;28;20032;-59
2023/06/09 07:06:16;;;;;;;20.45;18.85;;;1203.70;1049.60;;;;;;5071749;28;20016;-60
2023/06/09 07:08:42;;;;;;;24.48;22.42;;;1228.80;1049.60;;;;;;5071866;28;20024;-59
2023/06/09 07:11:08;;;;;;;21.52;19.73;;;1229.50;1024.00;;;;;;5071825;28;20074;-59
2023/06/09 07:13:34;;;;;;;23.60;21.70;;;1228.80;1049.60;;;;;;5071408;28;20469;-59
2023/06/09 07:16:00;;;;;;;22.30;20.50;;;1229.00;1049.60;;;;;;5065128;28;20036;-61
2023/06/09 07:18:27;;;;;;;22.75;20.92;;;1254.60;1024.00;;;;;;5057015;28;20029;-59
2023/06/09 07:20:53;;;;;;;21.98;20.10;;;1254.50;1024.00;;;;;;5051318;28;20029;-60
2023/06/09 07:23:19;;;;;;;21.67;19.83;;;1229.50;998.40;;;;;;5053723;28;20048;-59
2023/06/09 07:25:44;;;;;;;20.73;19.10;;;1178.50;1024.00;;;;;;5071016;28;20021;-59
2023/06/09 07:28:10;;;;;;;18.85;17.45;;;1203.30;1075.20;;;;;;5071617;28;20085;-58
2023/06/09 07:30:40;;;;;;;21.45;19.70;;;1203.80;1049.60;;;;;;5071352;28;20466;-59
2023/06/09 07:33:06;;;;;;;20.77;19.23;;;1204.10;1024.00;;;;;;5071217;28;20058;-59
2023/06/09 07:35:33;;;;;;;22.25;20.55;;;1203.80;1024.00;;;;;;5052489;28;20041;-58
2023/06/09 07:37:58;;;;;;;34.03;31.48;;;1178.20;1024.00;;;;;;5051388;28;20029;-61
2023/06/09 07:40:24;;;;;;;19.52;18.05;;;1178.30;1049.60;;;;;;5051406;28;20367;-60
2023/06/09 07:42:50;;;;;;;22.08;20.23;;;1229.30;1024.00;;;;;;5051485;28;20060;-60
2023/06/09 07:45:16;;;;;;;22.55;20.75;;;1255.30;998.40;;;;;;5042221;28;20041;-60
2023/06/09 07:47:41;;;;;;;20.90;19.30;;;1254.60;1024.00;;;;;;5045632;28;20028;-60
2023/06/09 07:50:08;;;;;;;21.10;19.50;;;1228.80;1049.60;;;;;;5050807;28;20025;-60
2023/06/09 07:52:36;;;;;;;21.85;20.00;;;;;;;;;;5050854;28;20025;-63
2023/06/09 07:55:03;;;;;;;23.20;21.40;;;1203.90;1049.60;;;;;;5051280;28;20017;-60
2023/06/09 07:57:29;;;;;;;22.85;21.15;;;1229.50;1024.00;;;;;;5051137;28;20075;-67
2023/06/09 07:59:55;;;;;;;20.40;18.83;;;1254.60;1024.00;;;;;;5051132;28;20032;-64
2023/06/09 08:02:21;;;;;;;20.30;18.50;;;1203.20;1049.60;;;;;;5050687;28;20036;-65
2023/06/09 08:04:46;;;;;;;20.98;19.00;;;1203.20;1049.60;;;;;;5050361;28;20490;-60
2023/06/09 08:07:12;;;;;;;20.33;18.63;;;1203.90;1024.00;;;;;;5050857;28;20020;-60
2023/06/09 08:09:38;;;;;;;20.75;18.98;;;1152.50;1075.20;;;;;;5050675;28;20021;-67
2023/06/09 08:12:07;;;;;;;179.52;36.22;;;1101.60;1152.00;;;;;;5050856;28;20021;-69
2023/06/09 08:14:33;;;;;;;36.30;20.58;;;1050.30;1177.60;;;;;;5050743;28;20083;-60
2023/06/09 08:16:59;;;;;;;18.20;16.60;;;999.00;1305.60;;;;;;5050468;28;20039;-66
2023/06/09 08:19:25;;;;;;;18.17;16.50;;;973.10;1331.20;;;;;;5050545;28;20029;-60
2023/06/09 08:21:52;;;;;;;18.00;16.50;;;947.70;1356.80;;;;;;5050653;28;20029;-69
2023/06/09 08:24:17;;;;;;;18.60;16.88;;;922.10;1433.60;;;;;;5050287;28;20478;-60
2023/06/09 08:26:43;;;;;;;17.90;16.40;;;871.30;1433.60;;;;;;5050589;28;20029;-68
2023/06/09 08:29:10;;;;;;;17.38;15.65;;;871.10;1510.40;;;;;;5050288;28;20029;-69
2023/06/09 08:31:39;;;;;;;17.95;16.35;;;870.50;1536.00;;;;;;5050428;28;20024;-60
2023/06/09 08:34:06;;;;;;;18.23;16.48;;;845.50;1561.60;;;;;;5052627;28;20060;-61
2023/06/09 08:36:32;;;;;;;19.60;15.52;;;845.30;1536.00;;;;;;5070201;28;20032;-64
2023/06/09 08:38:57;;;;;;;17.73;15.55;;;793.70;1689.60;;;;;;5070147;28;20040;-60
2023/06/09 08:41:28;;;;;;;18.40;16.50;;;768.60;1689.60;;;;;;5069818;28;20393;-61
2023/06/09 08:43:54;;;;;;;16.20;14.50;;;768.10;1715.20;;;;;;5069774;28;20107;-60
2023/06/09 08:46:21;;;;;;;15.73;13.77;;;768.40;1689.60;;;;;;5070127;28;20112;-59
2023/06/09 08:48:54;;;;;;;14.70;13.20;;;768.60;1715.20;;;;;;5069745;28;20028;-64
2023/06/09 08:51:21;;;;;;;13.07;11.88;;;793.80;1715.20;;;;;;5069833;28;20032;-60
2023/06/09 08:53:52;;;;;;;15.75;13.40;;;794.50;1612.80;;;;;;5069762;28;20355;-60
2023/06/09 08:56:21;;;;;;;15.88;14.23;;;768.90;1664.00;;;;;;5069798;28;20071;-60
2023/06/09 08:58:48;;;;;;;16.70;14.32;;;768.90;1664.00;;;;;;5069737;28;20159;-59
2023/06/09 09:01:14;;;;;;;17.35;13.73;;;793.80;1689.60;;;;;;5069531;28;20109;-60
2023/06/09 09:03:40;;;;;;;14.25;12.77;;;794.50;1664.00;;;;;;5069335;28;20037;-60
2023/06/09 09:06:06;;;;;;;12.63;11.15;;;793.80;1638.40;;;;;;5069576;28;20067;-60
2023/06/09 09:08:32;;;;;;;13.77;12.38;;;794.00;1715.20;;;;;;5069509;28;20016;-60
2023/06/09 09:10:57;;;;;;;12.57;11.38;;;794.50;1715.20;;;;;;5069653;28;20029;-60
2023/06/09 09:13:30;;;;;;;17.77;16.27;;;819.40;1664.00;;;;;;5069390;28;20078;-59
2023/06/09 09:15:58;;;;;;;14.77;13.30;;;819.30;1587.20;;;;;;5069655;28;20355;-60
2023/06/09 09:18:28;;;;;;;10.35;8.52;;;819.40;1561.60;;;;;;5069201;28;20087;-60
2023/06/09 09:20:55;;;;;;;10.73;9.75;;;819.60;1561.60;;;;;;5069663;28;20070;-59
2023/06/09 09:23:32;;;;;;;11.50;10.30;;;819.60;1561.60;;;;;;5069298;28;20024;-59
2023/06/09 09:26:04;;;;;;;8.60;7.80;;;819.80;1561.60;;;;;;5069528;28;20028;-60
2023/06/09 09:28:48;;;;;;;9.98;9.07;;;820.00;1459.20;;;;;;5069625;28;20082;-60
2023/06/09 09:31:14;;;;;;;13.77;12.45;;;820.10;1536.00;;;;;;5069522;28;20023;-60
2023/06/09 09:33:46;;;;;;;9.50;8.65;;;820.10;1484.80;;;;;;5069314;28;20029;-60
2023/06/09 09:36:12;;;;;;;9.87;8.87;;;844.80;1536.00;;;;;;5069559;28;20064;-68
2023/06/09 09:38:43;;;;;;;9.73;8.82;;;820.10;1536.00;;;;;;5068442;28;20289;-59
2023/06/09 09:41:13;;;;;;;15.68;13.82;;;820.10;1536.00;;;;;;5069347;28;20046;-68
2023/06/09 09:43:40;;;;;;;10.18;9.15;;;819.50;1638.40;;;;;;5069247;28;20043;-63
2023/06/09 09:46:06;;;;;;;9.95;8.93;;;794.10;1561.60;;;;;;5051118;28;20031;-68
2023/06/09 09:48:35;;;;;;;9.70;8.88;;;794.30;1587.20;;;;;;5069200;28;20440;-68
2023/06/09 09:51:00;;;;;;;10.38;9.43;;;794.00;1612.80;;;;;;5069350;28;20025;-60
2023/06/09 09:53:27;;;;;;;9.13;8.20;;;794.10;1587.20;;;;;;5068858;28;20032;-60
2023/06/09 09:55:55;;;;;;;10.75;8.13;;;794.30;1638.40;;;;;;5069392;28;20478;-59
2023/06/09 09:58:29;;;;;;;8.93;8.02;;;794.10;1587.20;;;;;;5068793;28;20505;-60
2023/06/09 10:00:57;;;;;;;9.95;9.02;;;794.00;1612.80;;;;;;5069217;28;20043;-60
2023/06/09 10:03:25;;;;;;;9.07;8.27;;;793.80;1587.20;;;;;;5069046;28;20546;-68
2023/06/09 10:05:54;;;;;;;10.75;9.60;;;793.70;1664.00;;;;;;5068797;28;20027;-61
2023/06/09 10:08:21;;;;;;;10.10;8.30;;;768.90;1638.40;;;;;;5068613;28;20043;-60
2023/06/09 10:10:49;;;;;;;15.75;9.40;;;768.90;1612.80;;;;;;5068690;28;20027;-59
2023/06/09 10:13:15;;;;;;;9.60;8.23;;;;;;;;;;5068815;28;20028;-60
2023/06/09 10:15:44;;;;;;;9.43;8.52;;;768.60;1664.00;;;;;;5068988;28;20013;-60
2023/06/09 10:18:12;;;;;;;9.02;8.23;;;768.10;1664.00;;;;;;5068854;28;20108;-60
2023/06/09 10:20:43;;;;;;;10.32;9.27;;;768.00;1715.20;;;;;;5068707;28;20374;-60
2023/06/09 10:23:09;;;;;;;10.00;9.00;;;743.30;1715.20;;;;;;5068382;28;20028;-61
2023/06/09 10:25:36;;;;;;;9.90;8.30;;;768.00;1638.40;;;;;;5050558;28;20066;-60
2023/06/09 10:28:02;;;;;;;10.25;9.18;;;743.20;1638.40;;;;;;5068937;28;20025;-69
2023/06/09 10:30:29;;;;;;;10.50;9.57;;;742.80;1689.60;;;;;;5068739;28;20083;-60
2023/06/09 10:33:04;;;;;;;9.60;8.60;;;743.30;1689.60;;;;;;5068671;28;20071;-60
2023/06/09 10:35:33;;;;;;;10.43;9.43;;;743.30;1689.60;;;;;;5068304;28;20095;-60
2023/06/09 10:38:19;;;;;;;10.43;9.43;;;743.00;1689.60;;;;;;5068280;28;20082;-64
2023/06/09 10:40:49;;;;;;;10.73;9.77;;;743.10;1664.00;;;;;;5067936;28;20025;-59
2023/06/09 10:43:53;;;;;;;13.07;11.95;;;743.10;1689.60;;;;;;5068500;28;20036;-59
2023/06/09 10:46:46;;;;;;;12.05;10.95;;;743.00;1792.00;;;;;;5056257;28;20428;-67
2023/06/09 10:49:37;;;;;;;14.45;12.95;;;743.20;1792.00;;;;;;5068513;28;20056;-60
2023/06/09 10:52:08;;;;;;;13.50;12.20;;;743.30;1843.20;;;;;;5070771;28;20107;-60
2023/06/09 10:54:35;;;;;;;12.98;11.45;;;742.80;1817.60;;;;;;5072468;28;20572;-61
2023/06/09 10:57:26;;;;;;;12.07;10.88;;;742.70;1843.20;;;;;;5072046;28;20476;-65
2023/06/09 10:59:52;;;;;;;11.25;10.23;;;717.70;1817.60;;;;;;5072146;28;20032;-66
2023/06/09 11:02:18;;;;;;;12.93;11.70;;;742.40;1817.60;;;;;;5071922;28;20082;-60
2023/06/09 11:04:52;;;;;;;12.73;11.50;;;742.60;1868.80;;;;;;5071686;28;20045;-60
2023/06/09 11:07:20;;;;;;;14.40;11.45;;;742.40;1868.80;;;;;;5071597;28;20050;-60
2023/06/09 11:09:51;;;;;;;14.27;12.88;;;717.50;1843.20;;;;;;5071609;28;20025;-60
2023/06/09 11:12:38;;;;;;;15.32;13.75;;;717.30;1868.80;;;;;;5071316;28;20592;-60
2023/06/09 11:15:09;;;;;;;15.10;13.43;;;717.40;1894.40;;;;;;5071627;28;20028;-60
2023/06/09 11:17:53;;;;;;;13.80;12.43;;;717.50;1894.40;;;;;;5071761;28;20025;-61
2023/06/09 11:20:23;;;;;;;16.27;14.00;;;717.50;1894.40;;;;;;5071411;28;20767;-61
2023/06/09 11:22:53;;;;;;;13.75;12.40;;;717.20;1920.00;;;;;;5071111;28;20596;-60
2023/06/09 11:25:18;;;;;;;15.15;13.50;;;717.40;1894.40;;;;;;5071245;28;20039;-60
2023/06/09 11:27:46;;;;;;;13.80;12.55;;;717.70;1894.40;;;;;;5071953;28;20013;-60
2023/06/09 11:30:18;;;;;;;14.18;11.88;;;717.70;1868.80;;;;;;5071447;28;20032;-59
2023/06/09 11:32:54;;;;;;;14.27;12.73;;;717.50;1894.40;;;;;;5071098;28;20033;-60
2023/06/09 11:35:28;;;;;;;13.80;12.50;;;717.10;1920.00;;;;;;5071125;28;20502;-59
2023/06/09 11:37:58;;;;;;;14.00;12.32;;;716.90;1894.40;;;;;;5071285;28;20035;-59
2023/06/09 11:40:25;;;;;;;13.82;11.93;;;716.80;1920.00;;;;;;5071314;28;20638;-59
2023/06/09 11:42:51;;;;;;;15.40;13.13;;;716.80;1894.40;;;;;;5071199;28;20059;-59
2023/06/09 11:45:17;;;;;;;23.15;14.55;;;716.80;1920.00;;;;;;5070928;28;20545;-61
2023/06/09 11:47:44;;;;;;;17.23;15.48;;;717.10;1945.60;;;;;;5071415;28;20036;-59
2023/06/09 11:50:14;;;;;;;15.77;14.27;;;716.80;1945.60;;;;;;5071402;28;20024;-59
2023/06/09 11:52:44;;;;;;;16.17;14.60;;;717.00;1945.60;;;;;;5058191;28;20053;-60
2023/06/09 11:55:13;;;;;;;14.55;13.05;;;716.80;1971.20;;;;;;5070867;28;20123;-60
2023/06/09 11:57:39;;;;;;;14.90;13.57;;;692.10;1920.00;;;;;;5071316;28;20028;-64
2023/06/09 12:00:12;;;;;;;16.23;14.60;;;692.10;1920.00;;;;;;5070459;28;20020;-59
2023/06/09 12:02:40;;;;;;;15.25;13.77;;;717.10;1945.60;;;;;;5070280;28;20104;-60
2023/06/09 12:05:12;;;;;;;14.82;13.30;;;716.90;1945.60;;;;;;5070559;28;20049;-59
2023/06/09 12:07:41;;;;;;;15.55;14.05;;;716.80;1945.60;;;;;;5070738;28;20074;-59
2023/06/09 12:10:07;;;;;;;16.95;15.35;;;691.80;1971.20;;;;;;5070763;28;20035;-60
2023/06/09 12:12:47;;;;;;;16.83;15.15;;;692.10;1945.60;;;;;;5070905;28;20032;-60
2023/06/09 12:15:13;;;;;;;17.02;15.20;;;716.80;1971.20;;;;;;5070763;28;20074;-60
2023/06/09 12:17:40;;;;;;;17.90;15.20;;;691.90;1945.60;;;;;;5070672;28;20036;-60
2023/06/09 12:20:24;;;;;;;17.42;15.30;;;716.90;1945.60;;;;;;5070348;28;20055;-59
2023/06/09 12:22:51;;;;;;;17.65;15.95;;;692.10;1945.60;;;;;;5070575;28;20024;-59
2023/06/09 12:25:27;;;;;;;16.70;14.98;;;716.80;1971.20;;;;;;5070220;28;20033;-60
2023/06/09 12:27:54;;;;;;;15.80;14.27;;;717.00;1945.60;;;;;;5070600;28;20478;-59
2023/06/09 12:30:37;;;;;;;17.15;15.45;;;691.90;1920.00;;;;;;5070507;28;20501;-60
2023/06/09 12:33:04;;;;;;;;;;;716.90;1945.60;;;;;;5070874;28;20111;-59
2023/06/09 12:35:39;;;;;;;16.33;14.73;;;716.90;1945.60;;;;;;5069952;28;19925;-60
2023/06/09 12:38:12;;;;;;;18.33;14.75;;;717.20;1945.60;;;;;;5070052;28;20024;-59
2023/06/09 12:40:49;;;;;;;16.00;14.48;;;717.50;1971.20;;;;;;5070159;28;20028;-59